Time;durP1;ratioP1;P1;durP2;ratioP2;P2;SDS_P1;SDS_P2;PMS_P1;PMS_P2;Temp;Humidity;BMP_temperature;BMP_pressure;BME280_temperature;BME280_humidity;BME280_pressure;Samples;Min_cycle;Max_cycle;Signal;HPM_P1;HPM_P2
2022/06/13 00:01:19;;;;;;;;;;;;;;;23.32;50.74;99924.28;4310141;33;19984;-83
2022/06/13 00:03:48;;;;;;;;;;;;;;;23.39;50.59;99921.38;4310349;33;19992;-85
2022/06/13 00:06:15;;;;;;;;;;;;;;;23.29;50.84;99924.37;4309799;33;19992;-85
2022/06/13 00:08:42;;;;;;;;;;;;;;;23.16;51.57;99930.09;4310800;33;19979;-83
2022/06/13 00:11:11;;;;;;;;;;;;;;;23.29;50.63;99925.25;4310690;33;20311;-83
2022/06/13 00:13:37;;;;;;;;;;;;;;;23.17;51.45;99926.56;4332450;33;19988;-83
2022/06/13 00:16:04;;;;;;;;;;;;;;;23.22;51.01;99931.66;4310533;33;19994;-85
2022/06/13 00:18:31;;;;;;;;;;;;;;;23.07;51.34;99922.50;4332228;33;20444;-86
2022/06/13 00:20:58;;;;;;;;;;;;;;;23.10;51.19;99919.75;4310492;33;20819;-83
2022/06/13 00:23:27;;;;;;;;;;;;;;;23.06;51.29;99923.41;4310469;33;20380;-84
2022/06/13 00:25:54;;;;;;;;;;;;;;;23.05;51.37;99921.69;4318113;33;20354;-85
2022/06/13 00:28:21;;;;;;;;;;;;;;;23.13;50.37;99919.66;4355727;32;20002;-85
2022/06/13 00:30:48;;;;;;;;;;;;;;;22.96;51.30;99912.28;4331933;33;20030;-83
2022/06/13 00:33:15;;;;;;;;;;;;;;;22.89;51.44;99916.03;4324218;33;20354;-84
2022/06/13 00:35:41;;;;;;;;;;;;;;;22.74;51.90;99909.47;4328146;33;19976;-84
2022/06/13 00:38:08;;;;;;;;;;;;;;;22.69;52.00;99907.91;4356554;32;19984;-89
2022/06/13 00:40:35;;;;;;;;;;;;;;;22.81;51.56;99901.34;4325503;32;19994;-85
2022/06/13 00:43:03;;;;;;;;;;;;;;;22.84;51.30;99902.09;4354626;32;19999;-82
2022/06/13 00:45:31;;;;;;;;;;;;;;;22.74;51.20;99901.56;4329411;32;19980;-84
2022/06/13 00:47:58;;;;;;;;;;;;;;;22.63;51.85;99893.13;4333379;33;20023;-83
2022/06/13 00:50:30;;;;;;;;;;;;;;;22.74;51.38;99900.69;4341518;32;20030;-83
2022/06/13 00:52:57;;;;;;;;;;;;;;;22.56;52.12;99899.53;4359160;32;20301;-85
2022/06/13 00:55:27;;;;;;;;;;;;;;;22.61;51.83;99896.72;4328926;32;20035;-86
2022/06/13 00:57:54;;;;;;;;;;;;;;;22.65;51.95;99891.28;4351186;32;19998;-86
2022/06/13 01:00:20;;;;;;;;;;;;;;;22.61;51.75;99892.31;4332816;33;19988;-84
2022/06/13 01:02:50;;;;;;;;;;;;;;;22.63;51.15;99887.84;4349545;32;20003;-85
2022/06/13 01:05:19;;;;;;;;;;;;;;;22.62;51.17;99886.16;4326426;33;19999;-83
2022/06/13 01:07:46;;;;;;;;;;;;;;;22.40;52.10;99879.81;4349342;32;20055;-87
2022/06/13 01:13:01;;;;;;;;;;;;;;;22.54;51.71;99876.75;4335130;32;20082;-84
2022/06/13 01:15:28;;;;;;;;;;;;;;;22.32;52.30;99871.28;4362737;32;20035;-86
2022/06/13 01:18:00;;;;;;;;;;;;;;;22.25;52.59;99871.47;4333153;33;20014;-85
2022/06/13 01:20:33;;;;;;;;;;;;;;;22.24;52.49;99863.63;4349724;32;20000;-86
2022/06/13 01:23:00;;;;;;;;;;;;;;;22.23;52.58;99873.28;4330610;33;19991;-86
2022/06/13 01:25:33;;;;;;;;;;;;;;;22.10;52.99;99877.19;4355001;32;20041;-84
2022/06/13 01:28:19;;;;;;;;;;;;;;;22.14;52.78;99868.25;4356132;32;20010;-85
2022/06/13 01:30:58;;;;;;;;;;;;;;;21.89;53.69;99867.28;4326968;33;20027;-85
2022/06/13 01:33:25;;;;;;;;;;;;;;;22.03;52.84;99870.38;4349687;32;19984;-84
2022/06/13 01:36:01;;;;;;;;;;;;;;;22.09;52.83;99862.28;4328480;32;20066;-84
2022/06/13 01:38:35;;;;;;;;;;;;;;;22.14;52.52;99865.63;4348106;32;19991;-85
2022/06/13 01:41:19;;;;;;;;;;;;;;;22.14;52.57;99863.00;4199924;32;20058;-85
2022/06/13 01:43:51;;;;;;;;;;;;;;;22.04;53.10;99869.47;4221194;32;19987;-83
2022/06/13 01:46:21;;;;;;;;;;;;;;;22.06;52.88;99865.03;4336261;33;20031;-84
2022/06/13 01:48:51;;;;;;;;;;;;;;;22.14;52.36;99863.00;4351085;32;19988;-83
2022/06/13 01:51:47;;;;;;;;;;;;;;;22.00;52.70;99854.66;4333831;32;20347;-83
2022/06/13 01:54:17;;;;;;;;;;;;;;;21.91;53.13;99865.47;4339310;32;20428;-84
2022/06/13 01:57:06;;;;;;;;;;;;;;;21.91;53.09;99862.84;4340547;33;19975;-83
2022/06/13 01:59:52;;;;;;;;;;;;;;;21.86;53.04;99851.56;4356950;32;20036;-85
2022/06/13 02:02:33;;;;;;;;;;;;;;;21.75;53.68;99850.13;4325584;33;19984;-86
2022/06/13 02:05:21;;;;;;;;;;;;;;;21.56;54.19;99859.47;4363349;32;20409;-84
2022/06/13 02:07:49;;;;;;;;;;;;;;;21.61;53.88;99852.31;4365728;32;20039;-84
2022/06/13 02:10:37;;;;;;;;;;;;;;;21.73;53.46;99851.94;4339842;32;20314;-83
2022/06/13 02:13:06;;;;;;;;;;;;;;;21.64;53.72;99851.38;4363303;32;20014;-83
2022/06/13 02:15:35;;;;;;;;;;;;;;;21.71;53.36;99848.50;4339916;32;19991;-83
2022/06/13 02:18:05;;;;;;;;;;;;;;;21.68;53.38;99853.84;4351046;32;20038;-84
2022/06/13 02:20:33;;;;;;;;;;;;;;;21.45;54.01;99851.03;4348085;32;19983;-86
2022/06/13 02:23:02;;;;;;;;;;;;;;;21.61;53.36;99843.53;4340179;33;20026;-84
2022/06/13 02:25:32;;;;;;;;;;;;;;;21.65;53.04;99847.81;4364944;32;19979;-83
2022/06/13 02:28:19;;;;;;;;;;;;;;;21.48;53.80;99857.06;4346580;32;19975;-83
2022/06/13 02:31:09;;;;;;;;;;;;;;;21.52;53.46;99849.94;4339485;32;20717;-86
2022/06/13 02:33:46;;;;;;;;;;;;;;;21.53;53.53;99854.28;4340285;32;19979;-85
2022/06/13 02:36:14;;;;;;;;;;;;;;;21.34;54.06;99854.75;4365134;32;19998;-84
2022/06/13 02:38:41;;;;;;;;;;;;;;;21.32;53.89;99853.97;4351068;32;19989;-85
2022/06/13 02:41:08;;;;;;;;;;;;;;;21.24;54.50;99858.56;4339760;32;20007;-83
2022/06/13 02:43:39;;;;;;;;;;;;;;;21.27;54.11;99853.22;4337516;32;861774;-87
2022/06/13 02:46:08;;;;;;;;;;;;;;;21.21;54.15;99848.13;4376827;32;20002;-84
2022/06/13 02:48:55;;;;;;;;;;;;;;;21.31;53.72;99849.63;4355574;32;19993;-83
2022/06/13 02:51:37;;;;;;;;;;;;;;;21.28;53.95;99852.34;4378916;32;20034;-87
2022/06/13 02:54:10;;;;;;;;;;;;;;;21.24;54.04;99848.03;4348468;32;20001;-84
2022/06/13 02:57:23;;;;;;;;;;;;;;;21.17;54.32;99849.09;4340948;32;19980;-85
2022/06/13 02:59:36;;;;;;;;;;;;;;;21.21;54.07;99850.75;4365981;32;19985;-84
2022/06/13 03:02:03;;;;;;;;;;;;;;;20.92;55.29;99851.53;4378785;32;19979;-84
2022/06/13 03:04:43;;;;;;;;;;;;;;;21.14;54.36;99851.81;4373648;32;20321;-84
2022/06/13 03:07:10;;;;;;;;;;;;;;;20.98;54.93;99842.63;4364972;32;19984;-84
2022/06/13 03:09:41;;;;;;;;;;;;;;;20.94;55.11;99838.34;4340760;33;20011;-86
2022/06/13 03:12:09;;;;;;;;;;;;;;;20.96;55.07;99841.78;4369185;32;20050;-83
2022/06/13 03:14:36;;;;;;;;;;;;;;;21.05;54.58;99846.81;4362007;32;20027;-85
2022/06/13 03:17:03;;;;;;;;;;;;;;;20.95;54.94;99840.06;4340483;32;20001;-83
2022/06/13 03:19:39;;;;;;;;;;;;;;;20.87;55.34;99843.78;4343001;32;19987;-85
2022/06/13 03:22:09;;;;;;;;;;;;;;;21.04;54.49;99850.34;4368253;32;19998;-83
2022/06/13 03:24:42;;;;;;;;;;;;;;;21.23;54.12;99845.47;4340394;33;19997;-85
2022/06/13 03:27:11;;;;;;;;;;;;;;;21.05;54.94;99846.81;4348451;32;20044;-84
2022/06/13 03:29:40;;;;;;;;;;;;;;;21.08;54.96;99841.47;4364016;32;20358;-83
2022/06/13 03:32:12;;;;;;;;;;;;;;;21.11;54.91;99846.66;4363694;32;20378;-84
2022/06/13 03:34:41;;;;;;;;;;;;;;;21.11;54.98;99846.66;4365128;32;20434;-85
2022/06/13 03:37:21;;;;;;;;;;;;;;;21.28;54.33;99841.78;4370305;32;19983;-85
2022/06/13 03:40:06;;;;;;;;;;;;;;;21.18;54.89;99842.94;4371550;32;19987;-85
2022/06/13 03:42:33;;;;;;;;;;;;;;;21.32;54.45;99840.78;4363180;32;19980;-84
2022/06/13 03:45:17;;;;;;;;;;;;;;;21.22;54.83;99834.06;4349092;32;20479;-83
2022/06/13 03:47:46;;;;;;;;;;;;;;;21.31;54.41;99831.19;4364077;32;20010;-84
2022/06/13 03:50:23;;;;;;;;;;;;;;;21.20;55.06;99835.88;4370331;32;19980;-83
2022/06/13 03:52:53;;;;;;;;;;;;;;;21.21;55.10;99837.59;4340387;32;20004;-84
2022/06/13 03:55:26;;;;;;;;;;;;;;;21.34;54.99;99836.34;4344188;32;20042;-83
2022/06/13 03:58:13;;;;;;;;;;;;;;;21.39;55.24;99835.41;4367835;32;20812;-83
2022/06/13 04:01:01;;;;;;;;;;;;;;;21.50;54.88;99838.56;4340909;32;20791;-83
2022/06/13 04:03:28;;;;;;;;;;;;;;;21.57;54.62;99835.72;4363064;32;19979;-83
2022/06/13 04:05:57;;;;;;;;;;;;;;;21.66;54.19;99829.31;4340723;32;20002;-84
2022/06/13 04:08:23;;;;;;;;;;;;;;;21.66;53.47;99829.31;4357639;32;19997;-84
2022/06/13 04:11:11;;;;;;;;;;;;;;;21.56;53.21;99827.84;4345866;32;19963;-83
2022/06/13 04:13:42;;;;;;;;;;;;;;;21.67;53.01;99831.06;4334999;32;20032;-86
2022/06/13 04:16:28;;;;;;;;;;;;;;;21.77;53.21;99832.50;4363191;32;20381;-84
2022/06/13 04:19:04;;;;;;;;;;;;;;;21.77;52.68;99832.50;4324877;32;20005;-83
2022/06/13 04:21:35;;;;;;;;;;;;;;;21.89;52.29;99833.03;4343186;32;20026;-85
2022/06/13 04:24:21;;;;;;;;;;;;;;;22.00;51.93;99828.31;4352143;32;20002;-85
2022/06/13 04:26:48;;;;;;;;;;;;;;;22.03;52.08;99833.47;4317593;33;20294;-84
2022/06/13 04:29:21;;;;;;;;;;;;;;;22.02;51.40;99834.41;4311084;33;20307;-87
2022/06/13 04:31:48;;;;;;;;;;;;;;;;;;4318610;33;19986;-84
2022/06/13 04:34:15;;;;;;;;;;;;;;;22.12;51.16;99838.47;4310532;33;19976;-84
2022/06/13 04:36:42;;;;;;;;;;;;;;;22.18;51.42;99835.66;4243358;32;20742;-87
2022/06/13 04:39:10;;;;;;;;;;;;;;;22.17;51.47;99841.84;4341355;32;20449;-91
2022/06/13 04:41:38;;;;;;;;;;;;;;;22.25;50.94;99834.56;4332971;33;20036;-85
2022/06/13 04:44:04;;;;;;;;;;;;;;;22.31;50.80;99835.28;4332755;33;19992;-87
2022/06/13 04:46:32;;;;;;;;;;;;;;;22.35;51.19;99834.28;4337703;32;20000;-88
2022/06/13 04:49:02;;;;;;;;;;;;;;;22.51;49.26;99835.50;4347576;32;20034;-88
2022/06/13 04:51:35;;;;;;;;;;;;;;;22.50;49.15;99829.34;4341332;32;19980;-88
2022/06/13 04:54:06;;;;;;;;;;;;;;;22.47;49.51;99828.59;4303128;32;20031;-89
2022/06/13 04:56:33;;;;;;;;;;;;;;;22.41;49.91;99823.53;4333391;33;20015;-89
2022/06/13 04:59:00;;;;;;;;;;;;;;;22.49;50.04;99821.47;4309421;33;20076;-89
2022/06/13 05:01:31;;;;;;;;;;;;;;;22.62;50.25;99833.37;4341974;32;19977;-89
2022/06/13 05:04:00;;;;;;;;;;;;;;;22.74;50.49;99832.94;4333486;32;19988;-90
2022/06/13 05:06:30;;;;;;;;;;;;;;;22.79;50.46;99824.03;4316723;33;19984;-88
2022/06/13 05:08:58;;;;;;;;;;;;;;;22.86;50.52;99831.66;4344335;32;20006;-90
2022/06/13 05:11:29;;;;;;;;;;;;;;;22.94;49.18;99824.38;4346854;32;20014;-87
2022/06/13 05:14:00;;;;;;;;;;;;;;;22.95;49.21;99819.97;4345953;32;20255;-85
2022/06/13 05:16:29;;;;;;;;;;;;;;;22.95;49.68;99819.97;4342061;32;20006;-84
2022/06/13 05:19:23;;;;;;;;;;;;;;;23.12;48.66;99828.13;4309813;33;20007;-86
2022/06/13 05:22:09;;;;;;;;;;;;;;;23.19;48.67;99829.62;4332730;32;20290;-86
2022/06/13 05:24:49;;;;;;;;;;;;;;;23.12;49.45;99832.56;4316952;33;19997;-85
2022/06/13 05:27:16;;;;;;;;;;;;;;;23.19;49.70;99832.28;4319630;33;20055;-86
2022/06/13 05:29:43;;;;;;;;;;;;;;;23.28;49.03;99827.59;4334276;33;20436;-87
2022/06/13 05:32:10;;;;;;;;;;;;;;;23.37;48.39;99832.53;4319674;33;19984;-87
2022/06/13 05:34:38;;;;;;;;;;;;;;;23.43;47.91;99833.16;4333975;33;20784;-86
2022/06/13 05:37:05;;;;;;;;;;;;;;;23.53;46.68;99828.41;4316763;33;20411;-87
2022/06/13 05:39:33;;;;;;;;;;;;;;;23.55;46.17;99826.59;4337219;32;19980;-87
2022/06/13 05:42:00;;;;;;;;;;;;;;;23.74;45.69;99831.19;4319806;33;19999;-88
2022/06/13 05:44:27;;;;;;;;;;;;;;;23.66;45.89;99824.38;4311489;33;19976;-87
2022/06/13 05:46:54;;;;;;;;;;;;;;;23.72;46.04;99827.75;4311869;33;19998;-88
2022/06/13 05:49:20;;;;;;;;;;;;;;;23.85;45.25;99821.06;4319906;33;20362;-88
2022/06/13 05:51:48;;;;;;;;;;;;;;;24.02;45.42;99825.69;4348769;32;19999;-89
2022/06/13 05:54:14;;;;;;;;;;;;;;;24.02;44.26;99813.31;4326113;33;19991;-87
2022/06/13 05:56:41;;;;;;;;;;;;;;;24.10;44.37;99813.88;4025220;32;10003846;-83
2022/06/13 05:59:09;;;;;;;;;;;;;;;24.10;43.81;99813.88;4288940;33;20028;-88
2022/06/13 06:01:36;;;;;;;;;;;;;;;24.17;43.67;99825.09;4284236;33;20374;-86
2022/06/13 06:04:03;;;;;;;;;;;;;;;24.24;44.14;99815.12;4311465;33;19976;-86
2022/06/13 06:06:31;;;;;;;;;;;;;;;24.26;44.78;99813.28;4304777;33;20056;-89
2022/06/13 06:09:01;;;;;;;;;;;;;;;24.41;43.10;99823.28;4306111;33;20331;-89
2022/06/13 06:11:29;;;;;;;;;;;;;;;24.78;42.70;99819.06;4311499;33;19988;-89
2022/06/13 06:13:56;;;;;;;;;;;;;;;25.08;41.61;99824.84;4282819;33;19989;-87
2022/06/13 06:16:24;;;;;;;;;;;;;;;25.24;42.74;99825.06;4325008;32;20333;-90
2022/06/13 06:18:51;;;;;;;;;;;;;;;25.64;41.58;99818.78;4365720;32;19999;-86
2022/06/13 06:21:18;;;;;;;;;;;;;;;26.08;40.63;99815.00;4346006;32;21021;-84
2022/06/13 06:23:45;;;;;;;;;;;;;;;26.36;39.87;99817.19;4338860;33;20001;-84
2022/06/13 06:26:22;;;;;;;;;;;;;;;26.74;37.48;99815.28;4344039;32;20001;-90
2022/06/13 06:28:49;;;;;;;;;;;;;;;27.15;36.65;99811.44;4367284;32;20375;-86
2022/06/13 06:31:16;;;;;;;;;;;;;;;27.49;37.35;99814.00;4344522;32;20007;-87
2022/06/13 06:33:43;;;;;;;;;;;;;;;27.87;36.94;99812.88;4332920;32;19989;-89
2022/06/13 06:36:10;;;;;;;;;;;;;;;28.04;36.21;99810.97;4342060;32;20681;-87
2022/06/13 06:38:37;;;;;;;;;;;;;;;28.47;36.94;99810.34;4347071;32;19995;-87
2022/06/13 06:41:04;;;;;;;;;;;;;;;28.67;35.21;99825.16;4341252;32;20007;-86
2022/06/13 06:43:31;;;;;;;;;;;;;;;28.81;33.53;99817.19;4347801;32;19993;-87
2022/06/13 06:45:58;;;;;;;;;;;;;;;28.91;34.01;99815.69;4340578;32;20047;-86
2022/06/13 06:48:26;;;;;;;;;;;;;;;29.18;34.32;99823.00;4355077;32;20015;-88
2022/06/13 06:50:53;;;;;;;;;;;;;;;29.31;34.51;99818.63;4320253;32;19991;-92
2022/06/13 06:53:21;;;;;;;;;;;;;;;29.48;34.82;99806.88;4340826;32;20010;-89
2022/06/13 07:01:25;;;;;;;;;;;;;;;29.49;33.98;99810.44;4359162;32;20355;-93
2022/06/13 07:03:52;;;;;;;;;;;;;;;29.93;34.13;99810.31;4341938;32;19987;-90
2022/06/13 07:06:20;;;;;;;;;;;;;;;30.26;32.49;99817.09;4369525;32;19998;-91
2022/06/13 07:08:47;;;;;;;;;;;;;;;29.93;32.75;99814.75;4338728;32;19987;-92
2022/06/13 07:14:04;;;;;;;;;;;;;;;30.49;32.24;99819.06;4364628;32;20005;-90
2022/06/13 07:16:31;;;;;;;;;;;;;;;30.46;32.10;99818.44;4344669;32;20038;-92
2022/06/13 07:18:58;;;;;;;;;;;;;;;30.73;30.65;99810.37;4342242;32;19983;-91
2022/06/13 07:21:25;;;;;;;;;;;;;;;30.83;32.01;99811.50;4346907;32;20049;-92
2022/06/13 07:23:52;;;;;;;;;;;;;;;30.61;34.10;99805.88;4341349;32;20042;-92
2022/06/13 07:26:19;;;;;;;;;;;;;;;31.09;32.26;99808.84;4346278;32;20019;-92
2022/06/13 07:28:53;;;;;;;;;;;;;;;31.17;31.59;99809.13;4343875;32;20705;-93
2022/06/13 07:31:21;;;;;;;;;;;;;;;31.46;28.45;99809.78;4364877;32;19986;-90
2022/06/13 07:33:48;;;;;;;;;;;;;;;31.62;29.29;99809.53;4371409;32;19994;-91
2022/06/13 07:36:15;;;;;;;;;;;;;;;31.53;29.00;99802.22;4346153;32;20029;-90
2022/06/13 07:38:42;;;;;;;;;;;;;;;31.35;30.54;99813.25;4376364;32;20026;-93
2022/06/13 07:41:09;;;;;;;;;;;;;;;31.25;31.37;99817.50;4351206;32;19987;-89
2022/06/13 07:43:37;;;;;;;;;;;;;;;31.12;30.33;99811.31;4369043;32;20353;-93
2022/06/13 07:46:05;;;;;;;;;;;;;;;31.25;29.14;99806.81;4384193;32;20003;-90
2022/06/13 07:48:32;;;;;;;;;;;;;;;31.23;29.62;99803.37;4374998;32;20084;-89
2022/06/13 07:50:59;;;;;;;;;;;;;;;31.46;29.78;99808.00;4359485;32;19979;-93
2022/06/13 07:53:26;;;;;;;;;;;;;;;31.38;29.18;99802.31;4377967;32;19991;-90
2022/06/13 07:56:14;;;;;;;;;;;;;;;31.30;29.25;99810.00;4352547;32;20498;-90
2022/06/13 07:58:42;;;;;;;;;;;;;;;31.47;29.40;99811.53;4345859;32;20046;-88
2022/06/13 08:01:09;;;;;;;;;;;;;;;31.72;28.28;99815.97;4352878;32;20819;-89
2022/06/13 08:03:36;;;;;;;;;;;;;;;32.08;28.45;99812.44;4352159;32;19987;-89
2022/06/13 08:06:05;;;;;;;;;;;;;;;31.30;30.03;99804.63;4371602;32;20038;-89
2022/06/13 08:08:34;;;;;;;;;;;;;;;31.63;29.78;99800.56;4350858;32;20009;-89
2022/06/13 08:11:03;;;;;;;;;;;;;;;31.36;28.00;99798.88;4373975;32;19990;-89
2022/06/13 08:13:30;;;;;;;;;;;;;;;31.39;29.15;99787.97;4360968;32;20054;-90
2022/06/13 08:15:57;;;;;;;;;;;;;;;32.18;28.41;99791.19;4360227;32;19987;-87
2022/06/13 08:18:24;;;;;;;;;;;;;;;32.00;28.91;99792.56;4349008;32;20050;-88
2022/06/13 08:20:51;;;;;;;;;;;;;;;31.78;29.66;99794.13;4374912;32;20053;-90
2022/06/13 08:23:19;;;;;;;;;;;;;;;32.17;28.08;99789.50;4341050;32;19998;-90
2022/06/13 08:25:47;;;;;;;;;;;;;;;32.15;29.18;99780.72;4362614;32;20013;-88
2022/06/13 08:28:14;;;;;;;;;;;;;;;31.81;28.98;99793.00;4365726;32;20355;-89
2022/06/13 08:30:49;;;;;;;;;;;;;;;32.60;27.05;99786.28;4345529;32;19979;-88
2022/06/13 08:33:17;;;;;;;;;;;;;;;32.31;32.17;99793.81;4348328;32;20322;-87
2022/06/13 08:35:44;;;;;;;;;;;;;;;32.42;29.02;99789.34;4360879;32;20013;-89
2022/06/13 08:38:10;;;;;;;;;;;;;;;32.47;30.21;99790.84;4359475;32;20322;-87
2022/06/13 08:40:56;;;;;;;;;;;;;;;32.92;28.64;99796.34;4368922;32;19991;-88
2022/06/13 08:44:00;;;;;;;;;;;;;;;32.90;29.89;99788.44;4343180;32;20000;-87
2022/06/13 08:46:34;;;;;;;;;;;;;;;33.45;25.43;99784.09;4335641;32;19995;-89
2022/06/13 08:49:06;;;;;;;;;;;;;;;33.44;26.16;99789.56;4337529;32;19980;-91
2022/06/13 08:51:46;;;;;;;;;;;;;;;32.76;28.64;99797.53;4363584;32;19987;-88
2022/06/13 08:54:20;;;;;;;;;;;;;;;32.64;30.36;99793.97;4371592;32;19994;-87
2022/06/13 08:56:47;;;;;;;;;;;;;;;32.46;30.91;99789.16;4373151;32;20078;-87
2022/06/13 08:59:43;;;;;;;;;;;;;;;31.89;28.13;99780.81;4352666;32;20026;-88
2022/06/13 09:02:21;;;;;;;;;;;;;;;32.26;28.93;99780.78;4350698;32;19997;-91
2022/06/13 09:05:07;;;;;;;;;;;;;;;32.27;29.26;99778.94;4377448;32;20396;-86
2022/06/13 09:07:52;;;;;;;;;;;;;;;33.01;26.99;99775.06;4368788;32;20006;-87
2022/06/13 09:10:22;;;;;;;;;;;;;;;32.99;29.45;99773.47;4353915;32;20050;-86
2022/06/13 09:12:56;;;;;;;;;;;;;;;32.45;30.25;99782.06;4371948;32;20469;-86
2022/06/13 09:15:31;;;;;;;;;;;;;;;32.12;28.56;99773.75;4351178;32;19979;-86
2022/06/13 09:18:01;;;;;;;;;;;;;;;32.61;30.76;99774.56;4347717;32;20027;-89
2022/06/13 09:20:37;;;;;;;;;;;;;;;32.25;29.99;99765.66;4378040;32;20009;-86
2022/06/13 09:23:21;;;;;;;;;;;;;;;32.52;30.19;99767.25;4353723;32;20017;-88
2022/06/13 09:25:53;;;;;;;;;;;;;;;32.71;28.33;99761.34;4372599;32;19980;-86
2022/06/13 09:28:32;;;;;;;;;;;;;;;32.87;28.77;99762.69;4369134;32;19976;-88
2022/06/13 09:31:03;;;;;;;;;;;;;;;32.61;31.57;99753.12;4346449;32;20074;-88
2022/06/13 09:33:32;;;;;;;;;;;;;;;32.65;28.85;99751.94;4364124;32;20348;-88
2022/06/13 09:35:59;;;;;;;;;;;;;;;32.10;31.64;99745.38;4348288;32;19975;-86
2022/06/13 09:38:30;;;;;;;;;;;;;;;31.84;32.05;99745.44;4349705;32;19988;-87
2022/06/13 09:40:57;;;;;;;;;;;;;;;32.86;28.76;99739.50;4369642;32;19984;-89
2022/06/13 09:43:42;;;;;;;;;;;;;;;32.83;30.10;99744.28;4341719;33;19983;-88
2022/06/13 09:46:12;;;;;;;;;;;;;;;32.68;28.66;99740.13;4364602;32;20432;-88
2022/06/13 09:48:48;;;;;;;;;;;;;;;33.00;27.31;99730.44;4346405;32;19999;-86
2022/06/13 09:51:31;;;;;;;;;;;;;;;32.67;28.83;99739.25;4356865;32;20329;-86
2022/06/13 09:54:17;;;;;;;;;;;;;;;33.03;28.92;99729.34;4363684;32;20411;-87
2022/06/13 09:56:47;;;;;;;;;;;;;;;33.00;28.58;99725.06;4340520;32;20661;-88
2022/06/13 09:59:21;;;;;;;;;;;;;;;31.82;28.81;99726.00;4348808;32;19975;-85
2022/06/13 10:05:31;;;;;;;;;;;;;;;31.37;29.40;99715.00;4312226;33;19979;-86
2022/06/13 10:08:00;;;;;;;;;;;;;;;32.03;31.30;99712.84;4339973;33;20322;-89
2022/06/13 10:10:31;;;;;;;;;;;;;;;32.52;30.52;99713.66;4340184;32;20724;-87
2022/06/13 10:13:16;;;;;;;;;;;;;;;33.17;26.89;99704.94;4363226;32;19987;-87
2022/06/13 10:15:47;;;;;;;;;;;;;;;32.69;31.10;99710.50;4368885;32;19999;-88
2022/06/13 10:18:17;;;;;;;;;;;;;;;32.94;30.29;99708.59;4364722;32;19995;-87
2022/06/13 10:20:48;;;;;;;;;;;;;;;33.38;26.41;99702.38;4331159;32;20443;-88
2022/06/13 10:23:33;;;;;;;;;;;;;;;33.07;28.26;99699.47;4365292;32;20000;-87
2022/06/13 10:26:18;;;;;;;;;;;;;;;33.56;26.75;99700.88;4343735;32;19984;-87
2022/06/13 10:28:57;;;;;;;;;;;;;;;33.28;28.62;99696.91;4367684;32;20013;-86
2022/06/13 10:31:43;;;;;;;;;;;;;;;32.24;29.07;99688.94;4339919;32;19998;-89
2022/06/13 10:34:10;;;;;;;;;;;;;;;31.98;30.84;99679.38;4339480;33;19995;-91
2022/06/13 10:36:37;;;;;;;;;;;;;;;32.97;27.87;99677.03;4340339;32;20050;-86
2022/06/13 10:39:05;;;;;;;;;;;;;;;33.00;31.43;99675.94;4342622;32;20063;-88
2022/06/13 10:41:34;;;;;;;;;;;;;;;32.65;29.12;99676.88;4368296;32;20050;-89
2022/06/13 10:44:01;;;;;;;;;;;;;;;32.50;30.45;99683.44;4339922;32;19984;-86
2022/06/13 10:46:28;;;;;;;;;;;;;;;33.00;29.00;99675.94;4340152;32;20001;-86
2022/06/13 10:49:05;;;;;;;;;;;;;;;32.97;28.56;99681.56;4363151;32;20996;-89
2022/06/13 10:51:32;;;;;;;;;;;;;;;33.35;28.29;99673.09;4363316;32;20340;-89
2022/06/13 10:54:10;;;;;;;;;;;;;;;33.60;27.95;99661.25;4367149;32;20022;-91
2022/06/13 10:56:41;;;;;;;;;;;;;;;33.69;28.82;99663.13;4366213;32;19979;-94
2022/06/13 10:59:20;;;;;;;;;;;;;;;33.87;26.81;99654.53;4352675;32;20696;-90
2022/06/13 11:01:51;;;;;;;;;;;;;;;34.18;24.84;99640.25;4371697;32;19976;-89
2022/06/13 11:04:19;;;;;;;;;;;;;;;34.21;26.35;99642.66;4372832;32;20026;-90
2022/06/13 11:06:47;;;;;;;;;;;;;;;33.52;28.73;99639.53;4373987;32;20367;-96
2022/06/13 11:09:26;;;;;;;;;;;;;;;32.67;28.97;99641.91;4366145;32;20919;-92
2022/06/13 11:12:02;;;;;;;;;;;;;;;32.36;29.22;99639.78;4348047;32;19960;-88
2022/06/13 11:14:36;;;;;;;;;;;;;;;32.42;29.64;99633.94;4371999;32;19976;-89
2022/06/13 11:22:41;;;;;;;;;;;;;;;32.46;27.99;99636.41;4368273;32;20048;-89
2022/06/13 11:25:13;;;;;;;;;;;;;;;31.95;31.13;99637.59;4372522;32;19955;-89
2022/06/13 11:27:39;;;;;;;;;;;;;;;31.94;30.85;99639.44;4380832;32;20091;-88
2022/06/13 11:30:25;;;;;;;;;;;;;;;31.81;31.70;99633.25;4349436;32;20023;-90
2022/06/13 11:33:02;;;;;;;;;;;;;;;31.93;31.46;99637.69;4345480;33;19971;-89
2022/06/13 11:35:29;;;;;;;;;;;;;;;31.75;33.16;99633.72;4350188;32;19956;-90
2022/06/13 11:38:20;;;;;;;;;;;;;;;31.77;33.14;99631.78;4384769;32;19983;-90
2022/06/13 11:40:56;;;;;;;;;;;;;;;31.52;34.33;99632.75;4355338;32;19963;-89
2022/06/13 11:43:39;;;;;;;;;;;;;;;31.85;33.96;99623.19;4377479;32;20003;-94
2022/06/13 11:46:08;;;;;;;;;;;;;;;32.18;31.89;99631.31;4350740;32;19997;-90
2022/06/13 11:48:35;;;;;;;;;;;;;;;32.10;33.58;99622.16;4340184;33;19998;-89
2022/06/13 11:51:04;;;;;;;;;;;;;;;32.04;35.28;99617.31;4363694;32;19963;-90
2022/06/13 11:53:37;;;;;;;;;;;;;;;32.39;33.63;99612.75;4370641;32;19994;-91
2022/06/13 11:56:06;;;;;;;;;;;;;;;31.71;34.63;99602.78;4378012;32;20379;-91
2022/06/13 11:58:34;;;;;;;;;;;;;;;32.31;33.88;99609.81;4373737;32;20374;-94
2022/06/13 12:01:20;;;;;;;;;;;;;;;32.38;34.11;99608.34;4366061;32;20027;-89
2022/06/13 12:04:07;;;;;;;;;;;;;;;32.72;32.42;99608.41;4357964;32;19991;-92
2022/06/13 12:06:37;;;;;;;;;;;;;;;32.84;31.90;99602.06;4363378;32;20045;-89
2022/06/13 12:09:15;;;;;;;;;;;;;;;32.80;32.78;99603.28;4360010;32;20033;-90
2022/06/13 12:11:52;;;;;;;;;;;;;;;32.85;30.37;99597.53;4384837;32;19983;-93
2022/06/13 12:14:20;;;;;;;;;;;;;;;32.73;29.28;99588.66;4369584;32;20091;-90
2022/06/13 12:16:47;;;;;;;;;;;;;;;32.25;31.26;99583.50;4352335;32;19983;-87
2022/06/13 12:19:30;;;;;;;;;;;;;;;32.67;28.12;99573.06;4353980;32;19956;-86
2022/06/13 12:21:57;;;;;;;;;;;;;;;32.34;29.83;99577.41;4345373;32;19978;-89
2022/06/13 12:24:27;;;;;;;;;;;;;;;31.74;31.91;99578.47;4323715;33;20346;-90
2022/06/13 12:27:12;;;;;;;;;;;;;;;31.92;32.17;99586.97;4321923;33;20043;-92
2022/06/13 12:29:50;;;;;;;;;;;;;;;31.72;33.30;99580.44;4322344;32;19991;-87
2022/06/13 12:32:22;;;;;;;;;;;;;;;32.19;31.22;99568.75;4338271;33;20047;-90
2022/06/13 12:34:53;;;;;;;;;;;;;;;32.10;32.82;99573.97;4334972;33;20033;-87
2022/06/13 12:37:39;;;;;;;;;;;;;;;32.72;29.48;99573.56;4336772;33;20078;-88
2022/06/13 12:40:12;;;;;;;;;;;;;;;32.73;31.42;99564.53;4324504;33;20703;-87
2022/06/13 12:43:03;;;;;;;;;;;;;;;32.66;31.01;99571.34;4310771;33;19984;-93
2022/06/13 12:45:36;;;;;;;;;;;;;;;33.09;28.71;99557.19;4313433;33;20036;-87
2022/06/13 12:48:23;;;;;;;;;;;;;;;33.14;30.21;99560.34;4312364;33;19980;-86
2022/06/13 12:50:57;;;;;;;;;;;;;;;33.05;28.95;99555.72;4319047;33;20817;-90
2022/06/13 12:53:42;;;;;;;;;;;;;;;32.59;29.60;99552.22;4334227;33;19980;-89
2022/06/13 12:56:20;;;;;;;;;;;;;;;32.42;32.18;99563.44;4313478;33;20329;-91
2022/06/13 12:59:14;;;;;;;;;;;;;;;32.60;32.35;99564.66;4346756;32;20785;-88
2022/06/13 13:01:45;;;;;;;;;;;;;;;32.28;34.65;99561.81;4326257;32;20289;-92
2022/06/13 13:04:18;;;;;;;;;;;;;;;32.31;35.80;99566.94;4340543;32;19980;-89
2022/06/13 13:07:04;;;;;;;;;;;;;;;32.70;33.26;99578.16;4311058;33;19973;-88
2022/06/13 13:09:50;;;;;;;;;;;;;;;32.57;33.96;99566.72;4317596;33;20117;-88
2022/06/13 13:12:33;;;;;;;;;;;;;;;32.18;33.39;99572.41;4314493;33;19983;-88
2022/06/13 13:15:11;;;;;;;;;;;;;;;32.03;36.77;99562.03;4316569;33;19994;-89
2022/06/13 13:17:48;;;;;;;;;;;;;;;32.08;33.39;99570.56;4343183;32;20335;-93
2022/06/13 13:20:18;;;;;;;;;;;;;;;31.70;35.31;99577.00;4335488;33;19992;-90
2022/06/13 13:23:01;;;;;;;;;;;;;;;31.83;34.00;99577.78;4326474;33;19984;-93
2022/06/13 13:25:42;;;;;;;;;;;;;;;31.88;34.08;99582.78;4321409;33;20011;-88
2022/06/13 13:28:14;;;;;;;;;;;;;;;31.77;34.59;99577.38;4323167;33;19992;-88
2022/06/13 13:30:55;;;;;;;;;;;;;;;31.46;34.77;99583.25;4354293;32;19979;-89
2022/06/13 13:33:41;;;;;;;;;;;;;;;31.17;34.97;99590.69;4364334;32;20034;-92
2022/06/13 13:36:27;;;;;;;;;;;;;;;30.81;35.06;99588.91;4364523;32;19988;-92